sensor_id;sensor_type;location;lat;lon;timestamp;P1;durP1;ratioP1;P2;durP2;ratioP2
16502;SDS011;53067;48.114;11.694;2023-01-08T00:01:44;4.70;;;4.20;;
16502;SDS011;53067;48.114;11.694;2023-01-08T00:04:14;5.03;;;3.73;;
16502;SDS011;53067;48.114;11.694;2023-01-08T00:06:43;4.23;;;3.70;;
16502;SDS011;53067;48.114;11.694;2023-01-08T00:09:10;5.23;;;4.00;;
16502;SDS011;53067;48.114;11.694;2023-01-08T00:11:38;4.47;;;3.63;;
16502;SDS011;53067;48.114;11.694;2023-01-08T00:14:07;4.83;;;4.33;;
16502;SDS011;53067;48.114;11.694;2023-01-08T00:16:35;5.60;;;3.97;;
16502;SDS011;53067;48.114;11.694;2023-01-08T00:19:02;4.23;;;3.83;;
16502;SDS011;53067;48.114;11.694;2023-01-08T00:21:30;4.90;;;3.90;;
16502;SDS011;53067;48.114;11.694;2023-01-08T00:23:57;4.47;;;3.77;;
16502;SDS011;53067;48.114;11.694;2023-01-08T00:26:25;6.10;;;5.07;;
16502;SDS011;53067;48.114;11.694;2023-01-08T00:28:52;6.53;;;4.73;;
16502;SDS011;53067;48.114;11.694;2023-01-08T00:31:20;7.83;;;4.87;;
16502;SDS011;53067;48.114;11.694;2023-01-08T00:33:48;5.37;;;4.87;;
16502;SDS011;53067;48.114;11.694;2023-01-08T00:36:16;6.00;;;5.20;;
16502;SDS011;53067;48.114;11.694;2023-01-08T00:38:45;8.20;;;4.90;;
16502;SDS011;53067;48.114;11.694;2023-01-08T00:41:13;5.67;;;4.47;;
16502;SDS011;53067;48.114;11.694;2023-01-08T00:43:42;4.63;;;4.23;;
16502;SDS011;53067;48.114;11.694;2023-01-08T00:46:09;5.57;;;4.87;;
16502;SDS011;53067;48.114;11.694;2023-01-08T00:48:37;5.43;;;4.70;;
16502;SDS011;53067;48.114;11.694;2023-01-08T00:51:05;4.67;;;4.17;;
16502;SDS011;53067;48.114;11.694;2023-01-08T00:53:34;6.00;;;4.27;;
16502;SDS011;53067;48.114;11.694;2023-01-08T00:56:06;4.73;;;4.07;;
16502;SDS011;53067;48.114;11.694;2023-01-08T00:58:35;4.43;;;3.83;;
16502;SDS011;53067;48.114;11.694;2023-01-08T01:01:07;5.30;;;3.60;;
16502;SDS011;53067;48.114;11.694;2023-01-08T01:03:39;5.43;;;4.10;;
16502;SDS011;53067;48.114;11.694;2023-01-08T01:06:07;5.23;;;4.60;;
16502;SDS011;53067;48.114;11.694;2023-01-08T01:08:36;5.53;;;4.33;;
16502;SDS011;53067;48.114;11.694;2023-01-08T01:11:11;6.47;;;4.70;;
16502;SDS011;53067;48.114;11.694;2023-01-08T01:13:40;8.73;;;5.17;;
16502;SDS011;53067;48.114;11.694;2023-01-08T01:16:07;7.87;;;5.27;;
16502;SDS011;53067;48.114;11.694;2023-01-08T01:18:35;5.43;;;4.93;;
16502;SDS011;53067;48.114;11.694;2023-01-08T01:21:08;8.63;;;4.57;;
16502;SDS011;53067;48.114;11.694;2023-01-08T01:23:48;6.33;;;4.77;;
16502;SDS011;53067;48.114;11.694;2023-01-08T01:26:16;10.07;;;5.10;;
16502;SDS011;53067;48.114;11.694;2023-01-08T01:28:48;5.87;;;4.50;;
16502;SDS011;53067;48.114;11.694;2023-01-08T01:31:18;5.37;;;4.40;;
16502;SDS011;53067;48.114;11.694;2023-01-08T01:33:46;4.53;;;3.67;;
16502;SDS011;53067;48.114;11.694;2023-01-08T01:36:14;4.03;;;3.60;;
16502;SDS011;53067;48.114;11.694;2023-01-08T01:38:43;4.63;;;4.00;;
16502;SDS011;53067;48.114;11.694;2023-01-08T01:41:32;3.87;;;3.30;;
16502;SDS011;53067;48.114;11.694;2023-01-08T01:47:02;3.83;;;3.07;;
16502;SDS011;53067;48.114;11.694;2023-01-08T01:49:31;3.93;;;3.10;;
16502;SDS011;53067;48.114;11.694;2023-01-08T01:52:00;3.27;;;2.87;;
16502;SDS011;53067;48.114;11.694;2023-01-08T01:54:31;3.13;;;2.83;;
16502;SDS011;53067;48.114;11.694;2023-01-08T01:57:00;3.40;;;3.07;;
16502;SDS011;53067;48.114;11.694;2023-01-08T01:59:28;3.63;;;3.27;;
16502;SDS011;53067;48.114;11.694;2023-01-08T02:01:56;3.20;;;2.90;;
16502;SDS011;53067;48.114;11.694;2023-01-08T02:04:24;3.57;;;3.03;;
16502;SDS011;53067;48.114;11.694;2023-01-08T02:10:09;3.60;;;3.30;;
16502;SDS011;53067;48.114;11.694;2023-01-08T02:11:59;3.47;;;3.17;;
16502;SDS011;53067;48.114;11.694;2023-01-08T02:26:06;3.30;;;2.87;;
16502;SDS011;53067;48.114;11.694;2023-01-08T02:31:32;2.90;;;2.50;;
16502;SDS011;53067;48.114;11.694;2023-01-08T02:34:00;2.40;;;2.20;;
16502;SDS011;53067;48.114;11.694;2023-01-08T02:36:32;3.83;;;2.60;;
16502;SDS011;53067;48.114;11.694;2023-01-08T02:44:55;2.47;;;2.30;;
16502;SDS011;53067;48.114;11.694;2023-01-08T02:47:38;2.77;;;2.57;;
16502;SDS011;53067;48.114;11.694;2023-01-08T02:50:12;3.33;;;2.40;;
16502;SDS011;53067;48.114;11.694;2023-01-08T02:55:39;2.60;;;2.40;;
16502;SDS011;53067;48.114;11.694;2023-01-08T02:58:09;3.10;;;2.60;;
16502;SDS011;53067;48.114;11.694;2023-01-08T03:00:39;2.53;;;2.30;;
16502;SDS011;53067;48.114;11.694;2023-01-08T03:03:09;2.07;;;1.97;;
16502;SDS011;53067;48.114;11.694;2023-01-08T03:05:42;2.40;;;2.13;;
16502;SDS011;53067;48.114;11.694;2023-01-08T03:08:12;2.27;;;2.17;;
16502;SDS011;53067;48.114;11.694;2023-01-08T03:10:41;2.10;;;1.93;;
16502;SDS011;53067;48.114;11.694;2023-01-08T03:13:12;2.53;;;2.33;;
16502;SDS011;53067;48.114;11.694;2023-01-08T03:15:52;2.50;;;2.30;;
16502;SDS011;53067;48.114;11.694;2023-01-08T03:18:23;2.50;;;2.30;;
16502;SDS011;53067;48.114;11.694;2023-01-08T03:20:52;2.53;;;2.33;;
16502;SDS011;53067;48.114;11.694;2023-01-08T03:23:19;2.90;;;2.60;;
16502;SDS011;53067;48.114;11.694;2023-01-08T03:25:48;2.40;;;2.20;;
16502;SDS011;53067;48.114;11.694;2023-01-08T03:28:18;2.70;;;2.40;;
16502;SDS011;53067;48.114;11.694;2023-01-08T03:30:47;2.50;;;2.30;;
16502;SDS011;53067;48.114;11.694;2023-01-08T03:33:15;2.43;;;2.23;;
16502;SDS011;53067;48.114;11.694;2023-01-08T03:35:46;3.17;;;2.20;;
16502;SDS011;53067;48.114;11.694;2023-01-08T03:40:56;2.40;;;2.20;;
16502;SDS011;53067;48.114;11.694;2023-01-08T03:43:29;2.43;;;2.23;;
16502;SDS011;53067;48.114;11.694;2023-01-08T03:45:58;2.70;;;2.20;;
16502;SDS011;53067;48.114;11.694;2023-01-08T03:48:28;3.10;;;1.80;;
16502;SDS011;53067;48.114;11.694;2023-01-08T03:50:58;2.30;;;2.10;;
16502;SDS011;53067;48.114;11.694;2023-01-08T03:53:26;2.00;;;1.90;;
16502;SDS011;53067;48.114;11.694;2023-01-08T03:55:54;2.63;;;2.30;;
16502;SDS011;53067;48.114;11.694;2023-01-08T03:58:23;1.93;;;1.83;;
16502;SDS011;53067;48.114;11.694;2023-01-08T04:00:51;1.87;;;1.77;;
16502;SDS011;53067;48.114;11.694;2023-01-08T04:03:18;1.80;;;1.70;;
16502;SDS011;53067;48.114;11.694;2023-01-08T04:05:46;2.13;;;2.00;;
16502;SDS011;53067;48.114;11.694;2023-01-08T04:08:13;2.13;;;2.03;;
16502;SDS011;53067;48.114;11.694;2023-01-08T04:10:41;1.93;;;1.83;;
16502;SDS011;53067;48.114;11.694;2023-01-08T04:13:08;1.90;;;1.80;;
16502;SDS011;53067;48.114;11.694;2023-01-08T04:15:36;2.33;;;1.90;;
16502;SDS011;53067;48.114;11.694;2023-01-08T04:18:03;2.03;;;1.93;;
16502;SDS011;53067;48.114;11.694;2023-01-08T04:20:31;1.77;;;1.67;;
16502;SDS011;53067;48.114;11.694;2023-01-08T04:22:58;1.63;;;1.53;;
16502;SDS011;53067;48.114;11.694;2023-01-08T04:25:26;1.80;;;1.70;;
16502;SDS011;53067;48.114;11.694;2023-01-08T04:27:53;2.63;;;1.87;;
16502;SDS011;53067;48.114;11.694;2023-01-08T04:30:21;2.60;;;2.00;;
16502;SDS011;53067;48.114;11.694;2023-01-08T04:32:48;2.60;;;1.83;;
16502;SDS011;53067;48.114;11.694;2023-01-08T04:35:16;1.67;;;1.57;;
16502;SDS011;53067;48.114;11.694;2023-01-08T04:37:43;3.27;;;1.63;;
16502;SDS011;53067;48.114;11.694;2023-01-08T04:40:11;2.00;;;1.90;;
16502;SDS011;53067;48.114;11.694;2023-01-08T04:42:38;1.67;;;1.57;;
16502;SDS011;53067;48.114;11.694;2023-01-08T04:45:06;1.80;;;1.70;;
16502;SDS011;53067;48.114;11.694;2023-01-08T04:47:34;1.73;;;1.60;;
16502;SDS011;53067;48.114;11.694;2023-01-08T04:50:02;3.57;;;1.80;;
16502;SDS011;53067;48.114;11.694;2023-01-08T04:52:30;2.13;;;2.03;;
16502;SDS011;53067;48.114;11.694;2023-01-08T04:54:57;2.50;;;1.40;;
16502;SDS011;53067;48.114;11.694;2023-01-08T04:57:25;2.00;;;1.90;;
16502;SDS011;53067;48.114;11.694;2023-01-08T04:59:53;1.80;;;1.70;;
16502;SDS011;53067;48.114;11.694;2023-01-08T05:02:20;2.10;;;1.93;;
16502;SDS011;53067;48.114;11.694;2023-01-08T05:04:48;1.83;;;1.73;;
16502;SDS011;53067;48.114;11.694;2023-01-08T05:07:15;1.97;;;1.80;;
16502;SDS011;53067;48.114;11.694;2023-01-08T05:09:42;1.93;;;1.50;;
16502;SDS011;53067;48.114;11.694;2023-01-08T05:12:10;1.50;;;1.40;;
16502;SDS011;53067;48.114;11.694;2023-01-08T05:14:37;1.70;;;1.60;;
16502;SDS011;53067;48.114;11.694;2023-01-08T05:17:05;1.90;;;1.50;;
16502;SDS011;53067;48.114;11.694;2023-01-08T05:19:32;2.03;;;1.60;;
16502;SDS011;53067;48.114;11.694;2023-01-08T05:22:00;1.50;;;1.40;;
16502;SDS011;53067;48.114;11.694;2023-01-08T05:24:27;1.93;;;1.80;;
16502;SDS011;53067;48.114;11.694;2023-01-08T05:26:55;1.67;;;1.57;;
16502;SDS011;53067;48.114;11.694;2023-01-08T05:29:22;1.70;;;1.60;;
16502;SDS011;53067;48.114;11.694;2023-01-08T05:31:50;1.47;;;1.33;;
16502;SDS011;53067;48.114;11.694;2023-01-08T05:34:17;1.30;;;1.30;;
16502;SDS011;53067;48.114;11.694;2023-01-08T05:36:45;1.80;;;1.70;;
16502;SDS011;53067;48.114;11.694;2023-01-08T05:39:12;1.37;;;1.27;;
16502;SDS011;53067;48.114;11.694;2023-01-08T05:41:40;1.70;;;1.60;;
16502;SDS011;53067;48.114;11.694;2023-01-08T05:44:08;1.43;;;1.33;;
16502;SDS011;53067;48.114;11.694;2023-01-08T05:46:36;1.30;;;1.20;;
16502;SDS011;53067;48.114;11.694;2023-01-08T05:49:03;1.77;;;1.33;;
16502;SDS011;53067;48.114;11.694;2023-01-08T05:51:31;1.70;;;1.60;;
16502;SDS011;53067;48.114;11.694;2023-01-08T05:53:58;1.77;;;1.67;;
16502;SDS011;53067;48.114;11.694;2023-01-08T05:56:26;2.27;;;2.17;;
16502;SDS011;53067;48.114;11.694;2023-01-08T05:58:53;1.50;;;1.40;;
16502;SDS011;53067;48.114;11.694;2023-01-08T06:01:21;1.63;;;1.13;;
16502;SDS011;53067;48.114;11.694;2023-01-08T06:03:49;1.07;;;1.07;;
16502;SDS011;53067;48.114;11.694;2023-01-08T06:06:16;7.60;;;2.63;;
16502;SDS011;53067;48.114;11.694;2023-01-08T06:08:44;1.50;;;1.40;;
16502;SDS011;53067;48.114;11.694;2023-01-08T06:11:11;1.70;;;1.60;;
16502;SDS011;53067;48.114;11.694;2023-01-08T06:13:44;1.93;;;1.80;;
16502;SDS011;53067;48.114;11.694;2023-01-08T06:16:09;1.83;;;1.40;;
16502;SDS011;53067;48.114;11.694;2023-01-08T06:18:37;1.90;;;1.80;;
16502;SDS011;53067;48.114;11.694;2023-01-08T06:21:05;2.20;;;1.67;;
16502;SDS011;53067;48.114;11.694;2023-01-08T06:23:33;1.77;;;1.67;;
16502;SDS011;53067;48.114;11.694;2023-01-08T06:26:00;1.30;;;1.20;;
16502;SDS011;53067;48.114;11.694;2023-01-08T06:28:31;1.50;;;1.40;;
16502;SDS011;53067;48.114;11.694;2023-01-08T06:30:59;1.77;;;1.67;;
16502;SDS011;53067;48.114;11.694;2023-01-08T06:33:28;1.70;;;1.50;;
16502;SDS011;53067;48.114;11.694;2023-01-08T06:36:02;1.53;;;1.43;;
16502;SDS011;53067;48.114;11.694;2023-01-08T06:38:31;1.67;;;1.57;;
16502;SDS011;53067;48.114;11.694;2023-01-08T06:41:03;1.30;;;1.20;;
16502;SDS011;53067;48.114;11.694;2023-01-08T06:43:33;1.70;;;1.40;;
16502;SDS011;53067;48.114;11.694;2023-01-08T06:46:01;1.10;;;1.10;;
16502;SDS011;53067;48.114;11.694;2023-01-08T06:48:29;1.47;;;1.37;;
16502;SDS011;53067;48.114;11.694;2023-01-08T06:51:02;1.57;;;1.47;;
16502;SDS011;53067;48.114;11.694;2023-01-08T06:53:26;1.40;;;1.30;;
16502;SDS011;53067;48.114;11.694;2023-01-08T06:55:54;1.37;;;1.20;;
16502;SDS011;53067;48.114;11.694;2023-01-08T06:58:23;1.50;;;1.40;;
16502;SDS011;53067;48.114;11.694;2023-01-08T07:00:52;1.57;;;1.47;;
16502;SDS011;53067;48.114;11.694;2023-01-08T07:03:19;1.40;;;1.30;;
16502;SDS011;53067;48.114;11.694;2023-01-08T07:05:47;2.23;;;1.87;;
16502;SDS011;53067;48.114;11.694;2023-01-08T07:08:15;1.20;;;1.20;;
16502;SDS011;53067;48.114;11.694;2023-01-08T07:10:43;1.30;;;1.20;;
16502;SDS011;53067;48.114;11.694;2023-01-08T07:13:11;1.53;;;1.43;;
16502;SDS011;53067;48.114;11.694;2023-01-08T07:15:39;1.40;;;1.30;;
16502;SDS011;53067;48.114;11.694;2023-01-08T07:18:09;2.20;;;2.00;;
16502;SDS011;53067;48.114;11.694;2023-01-08T07:20:38;1.83;;;1.73;;
16502;SDS011;53067;48.114;11.694;2023-01-08T07:23:09;2.10;;;1.97;;
16502;SDS011;53067;48.114;11.694;2023-01-08T07:25:36;1.70;;;1.60;;
16502;SDS011;53067;48.114;11.694;2023-01-08T07:28:03;1.50;;;1.40;;
16502;SDS011;53067;48.114;11.694;2023-01-08T07:30:31;1.33;;;1.33;;
16502;SDS011;53067;48.114;11.694;2023-01-08T07:32:59;2.33;;;1.37;;
16502;SDS011;53067;48.114;11.694;2023-01-08T07:35:27;1.80;;;1.70;;
16502;SDS011;53067;48.114;11.694;2023-01-08T07:37:55;1.40;;;1.37;;
16502;SDS011;53067;48.114;11.694;2023-01-08T07:40:23;1.50;;;1.40;;
16502;SDS011;53067;48.114;11.694;2023-01-08T07:43:00;1.20;;;1.20;;
16502;SDS011;53067;48.114;11.694;2023-01-08T07:45:29;1.67;;;1.57;;
16502;SDS011;53067;48.114;11.694;2023-01-08T07:47:58;2.00;;;1.90;;
16502;SDS011;53067;48.114;11.694;2023-01-08T07:50:26;4.37;;;1.83;;
16502;SDS011;53067;48.114;11.694;2023-01-08T07:52:57;2.33;;;1.60;;
16502;SDS011;53067;48.114;11.694;2023-01-08T07:55:27;2.17;;;1.90;;
16502;SDS011;53067;48.114;11.694;2023-01-08T07:57:55;2.00;;;1.90;;
16502;SDS011;53067;48.114;11.694;2023-01-08T08:00:23;2.27;;;2.17;;
16502;SDS011;53067;48.114;11.694;2023-01-08T08:02:51;2.43;;;2.27;;
16502;SDS011;53067;48.114;11.694;2023-01-08T08:05:18;1.93;;;1.83;;
16502;SDS011;53067;48.114;11.694;2023-01-08T08:07:45;2.77;;;2.47;;
16502;SDS011;53067;48.114;11.694;2023-01-08T08:10:13;1.90;;;1.80;;
16502;SDS011;53067;48.114;11.694;2023-01-08T08:12:43;4.03;;;2.10;;
16502;SDS011;53067;48.114;11.694;2023-01-08T08:15:10;2.50;;;2.30;;
16502;SDS011;53067;48.114;11.694;2023-01-08T08:17:38;2.10;;;2.00;;
16502;SDS011;53067;48.114;11.694;2023-01-08T08:20:05;1.73;;;1.63;;
16502;SDS011;53067;48.114;11.694;2023-01-08T08:22:34;2.17;;;1.97;;
16502;SDS011;53067;48.114;11.694;2023-01-08T08:25:02;2.17;;;2.07;;
16502;SDS011;53067;48.114;11.694;2023-01-08T08:27:29;2.20;;;2.00;;
16502;SDS011;53067;48.114;11.694;2023-01-08T08:29:57;2.50;;;2.30;;
16502;SDS011;53067;48.114;11.694;2023-01-08T08:32:24;2.30;;;2.20;;
16502;SDS011;53067;48.114;11.694;2023-01-08T08:34:52;2.00;;;1.80;;
16502;SDS011;53067;48.114;11.694;2023-01-08T08:37:19;3.13;;;1.90;;
16502;SDS011;53067;48.114;11.694;2023-01-08T08:39:47;2.17;;;1.90;;
16502;SDS011;53067;48.114;11.694;2023-01-08T08:42:14;2.40;;;2.00;;
16502;SDS011;53067;48.114;11.694;2023-01-08T08:44:42;2.87;;;2.10;;
16502;SDS011;53067;48.114;11.694;2023-01-08T08:47:10;1.80;;;1.70;;
16502;SDS011;53067;48.114;11.694;2023-01-08T08:49:37;2.23;;;2.13;;
16502;SDS011;53067;48.114;11.694;2023-01-08T08:52:05;2.40;;;2.23;;
16502;SDS011;53067;48.114;11.694;2023-01-08T08:54:33;2.30;;;2.20;;
16502;SDS011;53067;48.114;11.694;2023-01-08T08:57:01;3.40;;;2.53;;
16502;SDS011;53067;48.114;11.694;2023-01-08T08:59:29;2.37;;;2.17;;
16502;SDS011;53067;48.114;11.694;2023-01-08T09:01:56;5.13;;;2.50;;
16502;SDS011;53067;48.114;11.694;2023-01-08T09:04:24;2.77;;;2.50;;
16502;SDS011;53067;48.114;11.694;2023-01-08T09:06:51;3.07;;;2.77;;
16502;SDS011;53067;48.114;11.694;2023-01-08T09:09:19;5.27;;;2.50;;
16502;SDS011;53067;48.114;11.694;2023-01-08T09:11:46;3.53;;;2.33;;
16502;SDS011;53067;48.114;11.694;2023-01-08T09:14:14;2.17;;;1.93;;
16502;SDS011;53067;48.114;11.694;2023-01-08T09:16:41;3.77;;;2.77;;
16502;SDS011;53067;48.114;11.694;2023-01-08T09:19:09;3.30;;;3.07;;
16502;SDS011;53067;48.114;11.694;2023-01-08T09:21:36;2.83;;;2.63;;
16502;SDS011;53067;48.114;11.694;2023-01-08T09:24:04;2.90;;;2.43;;
16502;SDS011;53067;48.114;11.694;2023-01-08T09:26:32;3.67;;;2.23;;
16502;SDS011;53067;48.114;11.694;2023-01-08T09:29:00;2.77;;;2.20;;
16502;SDS011;53067;48.114;11.694;2023-01-08T09:31:28;3.20;;;2.87;;
16502;SDS011;53067;48.114;11.694;2023-01-08T09:33:55;3.33;;;2.47;;
16502;SDS011;53067;48.114;11.694;2023-01-08T09:36:23;2.83;;;2.57;;
16502;SDS011;53067;48.114;11.694;2023-01-08T09:38:50;4.20;;;2.70;;
16502;SDS011;53067;48.114;11.694;2023-01-08T09:41:19;2.80;;;2.40;;
16502;SDS011;53067;48.114;11.694;2023-01-08T09:43:49;3.87;;;3.47;;
16502;SDS011;53067;48.114;11.694;2023-01-08T09:46:19;3.60;;;3.20;;
16502;SDS011;53067;48.114;11.694;2023-01-08T09:48:49;3.00;;;2.80;;
16502;SDS011;53067;48.114;11.694;2023-01-08T09:51:19;3.50;;;3.20;;
16502;SDS011;53067;48.114;11.694;2023-01-08T09:53:54;3.03;;;2.83;;
16502;SDS011;53067;48.114;11.694;2023-01-08T09:56:42;3.17;;;2.50;;
16502;SDS011;53067;48.114;11.694;2023-01-08T09:59:11;3.70;;;2.70;;
16502;SDS011;53067;48.114;11.694;2023-01-08T10:01:40;2.60;;;2.40;;
16502;SDS011;53067;48.114;11.694;2023-01-08T10:07:10;3.20;;;3.00;;
16502;SDS011;53067;48.114;11.694;2023-01-08T10:09:24;3.60;;;3.30;;
16502;SDS011;53067;48.114;11.694;2023-01-08T10:11:46;3.10;;;2.90;;
16502;SDS011;53067;48.114;11.694;2023-01-08T10:14:23;3.07;;;2.77;;
16502;SDS011;53067;48.114;11.694;2023-01-08T10:16:55;2.80;;;2.60;;
16502;SDS011;53067;48.114;11.694;2023-01-08T10:19:23;2.90;;;2.70;;
16502;SDS011;53067;48.114;11.694;2023-01-08T10:21:50;2.60;;;2.40;;
16502;SDS011;53067;48.114;11.694;2023-01-08T10:24:32;2.00;;;1.90;;
16502;SDS011;53067;48.114;11.694;2023-01-08T10:27:07;2.23;;;2.03;;
16502;SDS011;53067;48.114;11.694;2023-01-08T10:29:35;1.90;;;1.80;;
16502;SDS011;53067;48.114;11.694;2023-01-08T10:32:08;2.30;;;2.10;;
16502;SDS011;53067;48.114;11.694;2023-01-08T10:34:55;2.10;;;2.00;;
16502;SDS011;53067;48.114;11.694;2023-01-08T10:37:28;2.10;;;1.90;;
16502;SDS011;53067;48.114;11.694;2023-01-08T10:40:01;2.20;;;2.00;;
16502;SDS011;53067;48.114;11.694;2023-01-08T10:42:34;2.30;;;2.10;;
16502;SDS011;53067;48.114;11.694;2023-01-08T10:45:02;2.10;;;2.00;;
16502;SDS011;53067;48.114;11.694;2023-01-08T10:47:34;2.20;;;2.03;;
16502;SDS011;53067;48.114;11.694;2023-01-08T10:50:03;2.00;;;1.90;;
16502;SDS011;53067;48.114;11.694;2023-01-08T10:52:33;2.60;;;1.80;;
16502;SDS011;53067;48.114;11.694;2023-01-08T10:55:11;1.77;;;1.40;;
16502;SDS011;53067;48.114;11.694;2023-01-08T10:58:13;1.40;;;1.30;;
16502;SDS011;53067;48.114;11.694;2023-01-08T11:00:54;1.20;;;1.20;;
16502;SDS011;53067;48.114;11.694;2023-01-08T11:03:37;1.40;;;1.30;;
16502;SDS011;53067;48.114;11.694;2023-01-08T11:06:10;1.93;;;1.60;;
16502;SDS011;53067;48.114;11.694;2023-01-08T11:08:44;1.27;;;1.17;;
16502;SDS011;53067;48.114;11.694;2023-01-08T11:11:10;1.10;;;1.10;;
16502;SDS011;53067;48.114;11.694;2023-01-08T11:13:37;1.27;;;1.17;;
16502;SDS011;53067;48.114;11.694;2023-01-08T11:16:05;1.40;;;1.33;;
16502;SDS011;53067;48.114;11.694;2023-01-08T11:18:47;1.40;;;1.30;;
16502;SDS011;53067;48.114;11.694;2023-01-08T11:21:29;1.40;;;1.30;;
16502;SDS011;53067;48.114;11.694;2023-01-08T11:24:20;1.50;;;1.40;;
16502;SDS011;53067;48.114;11.694;2023-01-08T11:26:53;2.20;;;1.90;;
16502;SDS011;53067;48.114;11.694;2023-01-08T11:29:40;1.53;;;1.43;;
16502;SDS011;53067;48.114;11.694;2023-01-08T11:32:35;1.10;;;1.10;;
16502;SDS011;53067;48.114;11.694;2023-01-08T11:37:33;1.30;;;1.13;;
16502;SDS011;53067;48.114;11.694;2023-01-08T11:40:10;1.43;;;1.33;;
16502;SDS011;53067;48.114;11.694;2023-01-08T11:42:46;1.27;;;1.27;;
16502;SDS011;53067;48.114;11.694;2023-01-08T11:56:19;2.77;;;2.50;;
16502;SDS011;53067;48.114;11.694;2023-01-08T12:01:58;3.10;;;2.50;;
16502;SDS011;53067;48.114;11.694;2023-01-08T12:04:51;2.97;;;2.67;;
16502;SDS011;53067;48.114;11.694;2023-01-08T12:15:38;2.30;;;1.90;;
16502;SDS011;53067;48.114;11.694;2023-01-08T12:18:13;1.40;;;1.30;;
16502;SDS011;53067;48.114;11.694;2023-01-08T12:20:55;1.57;;;1.47;;
16502;SDS011;53067;48.114;11.694;2023-01-08T12:25:59;1.70;;;1.60;;
16502;SDS011;53067;48.114;11.694;2023-01-08T12:34:06;1.47;;;1.37;;
16502;SDS011;53067;48.114;11.694;2023-01-08T12:36:39;2.47;;;2.20;;
16502;SDS011;53067;48.114;11.694;2023-01-08T12:39:17;2.57;;;2.10;;
16502;SDS011;53067;48.114;11.694;2023-01-08T12:41:55;2.13;;;1.83;;
16502;SDS011;53067;48.114;11.694;2023-01-08T12:44:25;2.60;;;2.37;;
16502;SDS011;53067;48.114;11.694;2023-01-08T12:46:56;3.67;;;2.13;;
16502;SDS011;53067;48.114;11.694;2023-01-08T12:49:29;3.30;;;3.00;;
16502;SDS011;53067;48.114;11.694;2023-01-08T12:52:05;3.10;;;2.80;;
16502;SDS011;53067;48.114;11.694;2023-01-08T12:55:00;4.37;;;2.77;;
16502;SDS011;53067;48.114;11.694;2023-01-08T12:57:38;2.93;;;2.47;;
16502;SDS011;53067;48.114;11.694;2023-01-08T13:00:19;2.63;;;2.07;;
16502;SDS011;53067;48.114;11.694;2023-01-08T13:02:57;2.57;;;2.10;;
16502;SDS011;53067;48.114;11.694;2023-01-08T13:05:31;1.93;;;1.77;;
16502;SDS011;53067;48.114;11.694;2023-01-08T13:08:04;2.30;;;1.70;;
16502;SDS011;53067;48.114;11.694;2023-01-08T13:10:37;1.80;;;1.70;;
16502;SDS011;53067;48.114;11.694;2023-01-08T13:13:07;2.10;;;1.90;;
16502;SDS011;53067;48.114;11.694;2023-01-08T13:15:38;1.90;;;1.80;;
16502;SDS011;53067;48.114;11.694;2023-01-08T13:18:15;1.83;;;1.73;;
16502;SDS011;53067;48.114;11.694;2023-01-08T13:20:55;2.03;;;1.70;;
16502;SDS011;53067;48.114;11.694;2023-01-08T13:23:25;2.33;;;1.63;;
16502;SDS011;53067;48.114;11.694;2023-01-08T13:25:55;2.23;;;1.80;;
16502;SDS011;53067;48.114;11.694;2023-01-08T13:28:26;4.73;;;2.60;;
16502;SDS011;53067;48.114;11.694;2023-01-08T13:31:05;2.40;;;2.20;;
16502;SDS011;53067;48.114;11.694;2023-01-08T13:33:44;2.43;;;2.23;;
16502;SDS011;53067;48.114;11.694;2023-01-08T13:36:14;2.37;;;2.17;;
16502;SDS011;53067;48.114;11.694;2023-01-08T13:41:39;2.80;;;2.33;;
16502;SDS011;53067;48.114;11.694;2023-01-08T13:44:04;1.90;;;1.80;;
16502;SDS011;53067;48.114;11.694;2023-01-08T13:46:56;2.00;;;1.80;;
16502;SDS011;53067;48.114;11.694;2023-01-08T13:49:34;1.70;;;1.60;;
16502;SDS011;53067;48.114;11.694;2023-01-08T13:52:04;2.03;;;1.70;;
16502;SDS011;53067;48.114;11.694;2023-01-08T13:54:33;2.17;;;1.70;;
16502;SDS011;53067;48.114;11.694;2023-01-08T13:57:12;2.50;;;1.67;;
16502;SDS011;53067;48.114;11.694;2023-01-08T14:00:00;1.70;;;1.60;;
16502;SDS011;53067;48.114;11.694;2023-01-08T14:02:49;1.50;;;1.40;;
16502;SDS011;53067;48.114;11.694;2023-01-08T14:05:26;1.63;;;1.53;;
16502;SDS011;53067;48.114;11.694;2023-01-08T14:08:00;2.30;;;1.67;;
16502;SDS011;53067;48.114;11.694;2023-01-08T14:10:28;2.10;;;1.50;;
16502;SDS011;53067;48.114;11.694;2023-01-08T14:13:15;1.83;;;1.40;;
16502;SDS011;53067;48.114;11.694;2023-01-08T14:15:33;1.80;;;1.70;;
16502;SDS011;53067;48.114;11.694;2023-01-08T14:18:01;3.60;;;2.27;;
16502;SDS011;53067;48.114;11.694;2023-01-08T14:23:01;7.53;;;5.53;;
16502;SDS011;53067;48.114;11.694;2023-01-08T14:25:39;7.27;;;5.13;;
16502;SDS011;53067;48.114;11.694;2023-01-08T14:28:11;10.37;;;5.67;;
16502;SDS011;53067;48.114;11.694;2023-01-08T14:30:46;15.43;;;9.13;;
16502;SDS011;53067;48.114;11.694;2023-01-08T14:33:17;17.97;;;8.50;;
16502;SDS011;53067;48.114;11.694;2023-01-08T14:35:47;10.07;;;6.93;;
16502;SDS011;53067;48.114;11.694;2023-01-08T14:38:16;11.43;;;6.43;;
16502;SDS011;53067;48.114;11.694;2023-01-08T14:40:44;10.57;;;6.30;;
16502;SDS011;53067;48.114;11.694;2023-01-08T14:43:16;7.43;;;5.10;;
16502;SDS011;53067;48.114;11.694;2023-01-08T14:45:47;7.23;;;5.37;;
16502;SDS011;53067;48.114;11.694;2023-01-08T14:51:04;7.07;;;4.47;;
16502;SDS011;53067;48.114;11.694;2023-01-08T14:53:35;7.93;;;4.23;;
16502;SDS011;53067;48.114;11.694;2023-01-08T14:56:05;6.17;;;4.47;;
16502;SDS011;53067;48.114;11.694;2023-01-08T14:58:34;7.93;;;4.70;;
16502;SDS011;53067;48.114;11.694;2023-01-08T15:01:12;8.53;;;4.50;;
16502;SDS011;53067;48.114;11.694;2023-01-08T15:03:47;6.33;;;4.07;;
16502;SDS011;53067;48.114;11.694;2023-01-08T15:06:23;6.80;;;4.80;;
16502;SDS011;53067;48.114;11.694;2023-01-08T15:08:52;7.50;;;4.30;;
16502;SDS011;53067;48.114;11.694;2023-01-08T15:11:24;5.90;;;4.43;;
16502;SDS011;53067;48.114;11.694;2023-01-08T15:13:55;4.70;;;4.20;;
16502;SDS011;53067;48.114;11.694;2023-01-08T15:16:29;6.87;;;5.20;;
16502;SDS011;53067;48.114;11.694;2023-01-08T15:21:47;8.40;;;4.93;;
16502;SDS011;53067;48.114;11.694;2023-01-08T15:24:24;8.07;;;5.27;;
16502;SDS011;53067;48.114;11.694;2023-01-08T15:26:55;9.93;;;6.13;;
16502;SDS011;53067;48.114;11.694;2023-01-08T15:29:28;8.20;;;6.10;;
16502;SDS011;53067;48.114;11.694;2023-01-08T15:34:53;8.83;;;6.27;;
16502;SDS011;53067;48.114;11.694;2023-01-08T15:37:20;7.33;;;6.30;;
16502;SDS011;53067;48.114;11.694;2023-01-08T15:39:48;12.03;;;8.07;;
16502;SDS011;53067;48.114;11.694;2023-01-08T15:42:19;17.17;;;10.97;;
16502;SDS011;53067;48.114;11.694;2023-01-08T15:45:16;19.80;;;12.73;;
16502;SDS011;53067;48.114;11.694;2023-01-08T15:47:45;19.43;;;11.83;;
16502;SDS011;53067;48.114;11.694;2023-01-08T15:50:12;15.03;;;9.87;;
16502;SDS011;53067;48.114;11.694;2023-01-08T15:52:41;12.83;;;8.13;;
16502;SDS011;53067;48.114;11.694;2023-01-08T15:55:13;8.07;;;6.13;;
16502;SDS011;53067;48.114;11.694;2023-01-08T15:57:42;6.47;;;5.83;;
16502;SDS011;53067;48.114;11.694;2023-01-08T16:00:11;8.57;;;6.97;;
16502;SDS011;53067;48.114;11.694;2023-01-08T16:02:44;7.10;;;6.50;;
16502;SDS011;53067;48.114;11.694;2023-01-08T16:05:14;7.57;;;6.03;;
16502;SDS011;53067;48.114;11.694;2023-01-08T16:07:42;7.03;;;5.60;;
16502;SDS011;53067;48.114;11.694;2023-01-08T16:10:13;7.23;;;5.60;;
16502;SDS011;53067;48.114;11.694;2023-01-08T16:12:41;7.23;;;5.53;;
16502;SDS011;53067;48.114;11.694;2023-01-08T16:15:10;7.40;;;6.50;;